Time;durP1;ratioP1;P1;durP2;ratioP2;P2;SDS_P1;SDS_P2;PMS_P1;PMS_P2;Temp;Humidity;BMP_temperature;BMP_pressure;BME280_temperature;BME280_humidity;BME280_pressure;Samples;Min_cycle;Max_cycle;Signal;HPM_P1;HPM_P2
2023/01/14 00:03:44;;;;;;;29.80;23.90;;;;;;;;;;10114464;28;20046;-60
2023/01/14 00:08:38;;;;;;;25.15;22.15;;;;;;;;;;10108364;28;20044;-60
2023/01/14 00:13:34;;;;;;;30.73;21.45;;;;;;;;;;10110940;28;20053;-60
2023/01/14 00:18:31;;;;;;;26.02;20.23;;;;;;;;;;10120219;28;20057;-60
2023/01/14 00:23:26;;;;;;;29.45;21.40;;;;;;;;;;10109748;28;20057;-60
2023/01/14 00:28:20;;;;;;;22.13;19.73;;;;;;;;;;10109166;28;20091;-61
2023/01/14 00:33:13;;;;;;;27.42;21.70;;;;;;;;;;10106232;28;20048;-61
2023/01/14 00:38:07;;;;;;;24.50;21.70;;;;;;;;;;10102597;28;20040;-61
2023/01/14 00:43:02;;;;;;;28.58;21.00;;;;;;;;;;10117386;28;20048;-60
2023/01/14 00:47:56;;;;;;;26.98;21.75;;;;;;;;;;10104653;28;20124;-60
2023/01/14 00:52:50;;;;;;;28.13;20.50;;;;;;;;;;10120523;28;20049;-61
2023/01/14 00:57:44;;;;;;;26.85;20.67;;;;;;;;;;10120982;28;20060;-60
2023/01/14 01:02:38;;;;;;;28.95;22.83;;;;;;;;;;10107937;28;20063;-60
2023/01/14 01:07:31;;;;;;;33.25;25.13;;;;;;;;;;10109908;28;20060;-60
2023/01/14 01:12:25;;;;;;;28.13;21.45;;;;;;;;;;10106444;28;20456;-60
2023/01/14 01:17:19;;;;;;;37.85;26.00;;;;;;;;;;10104678;28;20052;-60
2023/01/14 01:22:12;;;;;;;30.13;24.90;;;;;;;;;;10113127;28;20044;-60
2023/01/14 01:27:06;;;;;;;33.42;26.67;;;;;;;;;;10107610;28;20401;-59
2023/01/14 01:32:00;;;;;;;29.75;21.00;;;;;;;;;;10105736;28;20524;-60
2023/01/14 01:36:53;;;;;;;30.05;22.75;;;;;;;;;;10105295;28;20045;-60
2023/01/14 01:41:46;;;;;;;24.25;18.95;;;;;;;;;;10111550;28;20072;-60
2023/01/14 01:46:41;;;;;;;26.00;19.45;;;;;;;;;;10121306;28;20048;-60
2023/01/14 01:51:40;;;;;;;22.38;18.40;;;;;;;;;;10098966;28;20060;-60
2023/01/14 01:56:36;;;;;;;23.73;19.27;;;;;;;;;;10107058;28;20049;-60
2023/01/14 02:01:30;;;;;;;20.30;18.13;;;;;;;;;;10120999;28;20095;-60
2023/01/14 02:06:24;;;;;;;19.17;17.17;;;;;;;;;;10113277;28;20662;-60
2023/01/14 02:11:24;;;;;;;19.73;17.20;;;;;;;;;;10114677;28;20045;-61
2023/01/14 02:16:45;;;;;;;20.80;18.17;;;;;;;;;;10111535;28;20091;-60
2023/01/14 02:21:54;;;;;;;20.20;17.85;;;;;;;;;;10105311;28;20041;-61
2023/01/14 02:27:09;;;;;;;28.63;21.55;;;;;;;;;;10112939;28;20061;-60
2023/01/14 02:32:20;;;;;;;21.63;18.42;;;;;;;;;;10119070;28;20441;-60
2023/01/14 02:37:27;;;;;;;20.88;17.27;;;;;;;;;;10107919;28;20038;-61
2023/01/14 02:47:39;;;;;;;22.50;17.60;;;;;;;;;;10114353;28;20143;-60
2023/01/14 02:52:39;;;;;;;18.55;16.58;;;;;;;;;;10100414;28;20060;-60
2023/01/14 02:57:43;;;;;;;22.88;18.08;;;;;;;;;;10107864;28;20114;-61
2023/01/14 03:03:04;;;;;;;17.23;15.38;;;;;;;;;;10132409;28;20048;-60
2023/01/14 03:08:46;;;;;;;22.27;16.95;;;;;;;;;;10115570;28;20468;-60
2023/01/14 03:13:59;;;;;;;23.50;17.30;;;;;;;;;;10005580;28;20057;-60
2023/01/14 03:19:06;;;;;;;20.00;15.68;;;;;;;;;;10126681;28;21351;-61
2023/01/14 03:24:12;;;;;;;16.67;14.30;;;;;;;;;;10126608;28;20103;-60
2023/01/14 03:29:11;;;;;;;14.95;13.18;;;;;;;;;;10109748;28;20060;-60
2023/01/14 03:34:16;;;;;;;14.48;12.93;;;;;;;;;;10112033;28;20158;-60
2023/01/14 03:39:16;;;;;;;15.35;12.45;;;;;;;;;;10099417;28;20053;-61
2023/01/14 03:44:26;;;;;;;13.63;12.07;;;;;;;;;;10121352;28;20147;-60
2023/01/14 03:49:19;;;;;;;17.33;12.73;;;;;;;;;;10113277;28;20065;-60
2023/01/14 03:54:27;;;;;;;18.67;13.75;;;;;;;;;;10110612;28;20132;-61
2023/01/14 03:59:34;;;;;;;16.95;12.13;;;;;;;;;;10110910;28;20164;-60
2023/01/14 04:05:07;;;;;;;17.75;13.02;;;;;;;;;;10109592;28;20095;-60
2023/01/14 04:10:18;;;;;;;20.65;13.45;;;;;;;;;;10109600;28;20575;-60
2023/01/14 04:15:21;;;;;;;19.85;14.68;;;;;;;;;;10102589;28;20041;-60
2023/01/14 04:20:16;;;;;;;18.02;12.95;;;;;;;;;;10115612;28;20127;-60
2023/01/14 04:25:09;;;;;;;20.50;14.63;;;;;;;;;;10109685;28;20056;-60
2023/01/14 04:30:07;;;;;;;21.95;13.27;;;;;;;;;;10116238;28;20497;-61
2023/01/14 04:35:00;;;;;;;15.85;13.02;;;;;;;;;;10122637;28;20049;-60
2023/01/14 04:39:54;;;;;;;19.08;13.30;;;;;;;;;;10108168;28;20057;-60
2023/01/14 04:44:49;;;;;;;14.43;12.93;;;;;;;;;;10106619;28;20045;-60
2023/01/14 04:49:42;;;;;;;15.18;12.00;;;;;;;;;;10108764;28;20049;-60
2023/01/14 04:54:36;;;;;;;16.95;11.70;;;;;;;;;;10115591;28;20128;-60
2023/01/14 04:59:29;;;;;;;15.68;13.82;;;;;;;;;;10109006;28;20404;-60
2023/01/14 05:04:25;;;;;;;15.48;12.95;;;;;;;;;;10115875;28;20044;-61
2023/01/14 05:09:21;;;;;;;17.20;12.25;;;;;;;;;;10115387;28;20513;-60
2023/01/14 05:14:14;;;;;;;14.05;12.10;;;;;;;;;;10111461;28;20047;-60
2023/01/14 05:19:08;;;;;;;14.02;12.10;;;;;;;;;;10110169;28;20045;-60
2023/01/14 05:24:02;;;;;;;12.63;11.13;;;;;;;;;;10109689;28;20859;-61
2023/01/14 05:28:56;;;;;;;11.70;9.35;;;;;;;;;;10102650;28;20083;-60
2023/01/14 05:33:50;;;;;;;10.85;9.75;;;;;;;;;;10105448;28;20056;-61
2023/01/14 05:38:45;;;;;;;13.68;10.98;;;;;;;;;;10120079;28;20502;-60
2023/01/14 05:48:50;;;;;;;14.48;11.70;;;;;;;;;;10109834;28;20053;-60
2023/01/14 05:53:43;;;;;;;15.88;10.02;;;;;;;;;;10105096;28;20104;-60
2023/01/14 05:58:37;;;;;;;20.70;11.38;;;;;;;;;;10095242;28;20049;-60
2023/01/14 06:08:43;;;;;;;16.02;10.32;;;;;;;;;;10114315;28;20045;-59
2023/01/14 06:13:37;;;;;;;19.67;12.15;;;;;;;;;;10120700;28;20071;-60
2023/01/14 06:18:37;;;;;;;21.58;11.52;;;;;;;;;;10125405;28;20091;-59
2023/01/14 06:23:32;;;;;;;15.20;13.10;;;;;;;;;;10126555;28;20056;-59
2023/01/14 06:28:30;;;;;;;13.85;11.85;;;;;;;;;;10135756;28;20064;-59
2023/01/14 06:33:41;;;;;;;16.70;12.23;;;;;;;;;;10134809;28;20122;-60
2023/01/14 06:38:36;;;;;;;14.30;11.20;;;;;;;;;;10137697;28;20048;-60
2023/01/14 06:43:30;;;;;;;11.80;10.60;;;;;;;;;;10136313;28;20061;-60
2023/01/14 06:48:25;;;;;;;14.07;11.55;;;;;;;;;;10141477;28;20095;-59
2023/01/14 06:53:18;;;;;;;17.05;12.98;;;;;;;;;;10111514;28;20052;-59
2023/01/14 06:58:11;;;;;;;17.45;14.73;;;;;;;;;;10120378;28;20032;-59
2023/01/14 07:03:05;;;;;;;21.00;18.38;;;;;;;;;;10117934;28;20544;-62
2023/01/14 07:07:59;;;;;;;24.60;19.77;;;;;;;;;;10127791;28;20110;-61
2023/01/14 07:12:52;;;;;;;27.15;21.52;;;;;;;;;;10124457;28;20057;-61
2023/01/14 07:17:48;;;;;;;24.75;18.95;;;;;;;;;;10112948;28;20053;-60
2023/01/14 07:22:41;;;;;;;20.25;17.77;;;;;;;;;;10124557;28;20127;-61
2023/01/14 07:27:35;;;;;;;20.05;17.02;;;;;;;;;;10115874;28;20071;-60
2023/01/14 07:32:28;;;;;;;22.70;15.95;;;;;;;;;;10115156;28;20049;-61
2023/01/14 07:37:21;;;;;;;16.52;13.77;;;;;;;;;;10111663;28;20045;-61
2023/01/14 07:42:19;;;;;;;17.15;14.18;;;;;;;;;;10127224;28;20064;-62
2023/01/14 07:47:13;;;;;;;18.17;15.18;;;;;;;;;;10109807;28;20457;-61
2023/01/14 07:52:12;;;;;;;22.65;17.38;;;;;;;;;;10102122;28;20045;-61
2023/01/14 07:57:07;;;;;;;20.33;16.30;;;;;;;;;;10103429;28;20049;-61
2023/01/14 08:02:01;;;;;;;23.42;16.27;;;;;;;;;;10099978;28;20080;-61
2023/01/14 08:06:58;;;;;;;20.30;17.50;;;;;;;;;;10112740;28;20546;-61
2023/01/14 08:11:52;;;;;;;20.10;17.38;;;;;;;;;;10116830;28;20049;-61
2023/01/14 08:16:46;;;;;;;23.58;20.38;;;;;;;;;;10121025;28;20497;-62
2023/01/14 08:21:40;;;;;;;27.40;21.85;;;;;;;;;;10118716;28;20048;-61
2023/01/14 08:26:34;;;;;;;28.38;22.42;;;;;;;;;;10117767;28;20068;-60
2023/01/14 08:31:28;;;;;;;23.42;19.75;;;;;;;;;;10116442;28;20471;-60
2023/01/14 08:36:22;;;;;;;24.83;18.98;;;;;;;;;;10116955;28;20417;-60
2023/01/14 08:41:18;;;;;;;21.02;16.60;;;;;;;;;;10117060;28;20056;-60
2023/01/14 08:46:12;;;;;;;23.70;16.92;;;;;;;;;;10114067;28;20076;-60
2023/01/14 08:51:08;;;;;;;20.70;15.95;;;;;;;;;;10121144;28;20057;-60
2023/01/14 08:56:03;;;;;;;26.63;18.52;;;;;;;;;;10115361;28;20118;-60
2023/01/14 09:01:03;;;;;;;21.95;19.05;;;;;;;;;;10108438;28;20060;-60
2023/01/14 09:05:58;;;;;;;26.35;18.33;;;;;;;;;;10111557;28;20052;-60
2023/01/14 09:21:16;;;;;;;25.33;20.85;;;;;;;;;;10115565;28;20037;-60
2023/01/14 09:26:10;;;;;;;27.10;19.17;;;;;;;;;;10096900;28;20045;-60
2023/01/14 09:31:04;;;;;;;21.30;18.92;;;;;;;;;;10113257;28;20080;-61
2023/01/14 09:36:01;;;;;;;23.05;17.90;;;;;;;;;;10114021;28;20044;-60
2023/01/14 09:40:55;;;;;;;22.55;17.40;;;;;;;;;;10117614;28;20040;-61
2023/01/14 09:46:03;;;;;;;24.10;18.45;;;;;;;;;;10114469;28;20037;-61
2023/01/14 09:51:01;;;;;;;25.65;21.65;;;;;;;;;;10117122;28;20040;-60
2023/01/14 09:56:18;;;;;;;20.23;18.10;;;;;;;;;;10114246;28;20053;-61
2023/01/14 10:01:17;;;;;;;20.55;18.35;;;;;;;;;;10113821;28;20095;-61
2023/01/14 10:06:16;;;;;;;29.77;26.27;;;;;;;;;;10113237;28;20434;-64
2023/01/14 10:11:11;;;;;;;52.33;45.15;;;;;;;;;;10115444;28;20049;-65
2023/01/14 10:16:12;;;;;;;55.35;48.20;;;;;;;;;;10133620;28;20484;-64
2023/01/14 10:21:42;;;;;;;52.65;41.33;;;;;;;;;;10121222;28;20048;-64
2023/01/14 10:26:35;;;;;;;35.97;31.17;;;;;;;;;;10112775;28;20133;-65
2023/01/14 10:31:31;;;;;;;31.10;21.73;;;;;;;;;;10129221;28;20086;-65
2023/01/14 10:36:29;;;;;;;27.98;21.38;;;;;;;;;;10125527;28;20057;-65
2023/01/14 10:46:35;;;;;;;24.17;19.77;;;;;;;;;;10126277;28;20068;-65
2023/01/14 10:51:37;;;;;;;24.38;20.23;;;;;;;;;;10127207;28;20064;-65
2023/01/14 10:56:30;;;;;;;27.13;20.23;;;;;;;;;;10128671;28;20429;-66
2023/01/14 11:01:41;;;;;;;27.02;21.13;;;;;;;;;;10121627;28;20061;-65
2023/01/14 11:06:35;;;;;;;26.38;21.20;;;;;;;;;;10124525;28;20505;-65
2023/01/14 11:11:38;;;;;;;30.42;22.88;;;;;;;;;;10127879;28;20460;-64
2023/01/14 11:16:34;;;;;;;32.42;24.75;;;;;;;;;;10141973;28;20044;-64
2023/01/14 11:21:35;;;;;;;30.65;25.45;;;;;;;;;;10123753;28;20072;-65
2023/01/14 11:26:35;;;;;;;27.38;21.70;;;;;;;;;;10126844;28;20047;-65
2023/01/14 11:31:48;;;;;;;25.60;21.88;;;;;;;;;;10143702;28;20127;-62
2023/01/14 11:36:42;;;;;;;29.38;23.92;;;;;;;;;;10124104;28;20051;-62
2023/01/14 11:41:40;;;;;;;32.90;26.23;;;;;;;;;;10125392;28;20044;-62
2023/01/14 11:46:36;;;;;;;36.63;26.60;;;;;;;;;;10127749;28;20041;-62
2023/01/14 11:51:29;;;;;;;33.60;26.60;;;;;;;;;;10130059;28;20063;-61
2023/01/14 11:56:24;;;;;;;40.38;28.00;;;;;;;;;;10120766;28;20052;-60
2023/01/14 12:01:27;;;;;;;32.10;27.70;;;;;;;;;;10132316;28;20049;-61
2023/01/14 12:06:48;;;;;;;33.80;27.70;;;;;;;;;;10131623;28;20099;-64
2023/01/14 12:12:10;;;;;;;43.53;32.85;;;;;;;;;;10123934;28;20056;-61
2023/01/14 12:17:19;;;;;;;38.67;32.15;;;;;;;;;;10118306;28;20052;-61
2023/01/14 12:22:45;;;;;;;42.30;32.30;;;;;;;;;;10124515;28;20045;-61
2023/01/14 12:27:44;;;;;;;36.80;31.67;;;;;;;;;;10139471;28;20075;-62
2023/01/14 12:32:38;;;;;;;40.88;30.27;;;;;;;;;;10123793;28;20448;-62
2023/01/14 12:37:50;;;;;;;36.22;30.30;;;;;;;;;;10129209;28;20045;-61
2023/01/14 12:48:00;;;;;;;36.38;28.13;;;;;;;;;;10129178;28;20057;-62
2023/01/14 12:52:55;;;;;;;36.22;28.35;;;;;;;;;;10121837;28;20477;-61
2023/01/14 12:57:50;;;;;;;32.33;26.48;;;;;;;;;;10106438;28;20056;-61
2023/01/14 13:02:47;;;;;;;34.80;27.98;;;;;;;;;;10111449;28;20049;-61
2023/01/14 13:07:53;;;;;;;31.08;25.35;;;;;;;;;;10118403;28;20051;-61
2023/01/14 13:12:47;;;;;;;36.17;26.08;;;;;;;;;;10115791;28;20049;-61
2023/01/14 13:17:44;;;;;;;30.33;22.55;;;;;;;;;;10106458;28;20152;-60
2023/01/14 13:22:38;;;;;;;29.90;24.02;;;;;;;;;;10113482;28;20052;-61
2023/01/14 13:27:39;;;;;;;31.00;22.23;;;;;;;;;;10116980;28;20044;-61
2023/01/14 13:32:59;;;;;;;24.67;20.05;;;;;;;;;;10115762;28;20106;-61
2023/01/14 13:37:53;;;;;;;26.30;22.08;;;;;;;;;;10111878;28;20162;-61
2023/01/14 13:42:58;;;;;;;27.15;21.05;;;;;;;;;;10118141;28;20049;-61
2023/01/14 13:47:52;;;;;;;32.40;20.73;;;;;;;;;;10115010;28;20532;-61
2023/01/14 13:53:00;;;;;;;24.35;21.83;;;;;;;;;;10115300;28;20128;-63
2023/01/14 13:57:55;;;;;;;24.67;20.42;;;;;;;;;;10117606;28;20199;-61
2023/01/14 14:02:56;;;;;;;21.42;18.60;;;;;;;;;;10108137;28;20526;-61
2023/01/14 14:07:49;;;;;;;22.55;19.85;;;;;;;;;;10130074;28;20071;-61
2023/01/14 14:17:57;;;;;;;26.13;19.65;;;;;;;;;;10111192;28;20513;-61
2023/01/14 14:23:02;;;;;;;23.77;20.20;;;;;;;;;;10132886;28;20116;-61
2023/01/14 14:27:57;;;;;;;27.52;21.08;;;;;;;;;;10134979;28;20045;-62
2023/01/14 14:32:50;;;;;;;25.75;20.92;;;;;;;;;;10119726;28;20045;-62
2023/01/14 14:37:49;;;;;;;36.72;27.90;;;;;;;;;;10119752;28;20098;-61
2023/01/14 14:42:43;;;;;;;26.63;22.92;;;;;;;;;;10109015;28;20049;-61
2023/01/14 14:47:43;;;;;;;26.98;23.13;;;;;;;;;;10109880;28;20049;-61
2023/01/14 14:52:40;;;;;;;28.83;24.80;;;;;;;;;;10107802;28;20095;-61
2023/01/14 14:57:35;;;;;;;31.48;25.70;;;;;;;;;;10112386;28;20044;-61
2023/01/14 15:02:35;;;;;;;34.22;24.92;;;;;;;;;;10115224;28;20052;-61
2023/01/14 15:07:29;;;;;;;34.33;25.80;;;;;;;;;;10131664;28;20555;-61
2023/01/14 15:12:23;;;;;;;31.95;26.00;;;;;;;;;;10136148;28;20076;-61
2023/01/14 15:17:18;;;;;;;37.55;28.58;;;;;;;;;;10122153;28;20041;-61
2023/01/14 15:22:13;;;;;;;31.73;27.77;;;;;;;;;;10129660;28;20049;-61
2023/01/14 15:27:13;;;;;;;34.63;27.83;;;;;;;;;;10124691;28;20044;-61
2023/01/14 15:32:37;;;;;;;36.03;29.20;;;;;;;;;;10127274;28;20144;-61
2023/01/14 15:37:31;;;;;;;37.78;28.75;;;;;;;;;;10124300;28;20049;-61
2023/01/14 15:42:26;;;;;;;34.47;29.83;;;;;;;;;;10123075;28;20037;-61
2023/01/14 15:47:23;;;;;;;35.42;29.10;;;;;;;;;;10130310;28;20102;-61
2023/01/14 15:52:37;;;;;;;50.35;33.83;;;;;;;;;;10130540;28;20048;-61
2023/01/14 15:57:40;;;;;;;45.22;33.47;;;;;;;;;;10113298;28;20052;-61
2023/01/14 16:02:35;;;;;;;41.17;33.97;;;;;;;;;;10113866;28;20122;-60
2023/01/14 16:07:28;;;;;;;41.47;33.05;;;;;;;;;;10121109;28;20052;-61
2023/01/14 16:12:22;;;;;;;47.45;36.28;;;;;;;;;;10117279;28;20557;-61
2023/01/14 16:17:20;;;;;;;42.10;34.65;;;;;;;;;;10120721;28;20404;-61
2023/01/14 16:22:14;;;;;;;49.95;38.63;;;;;;;;;;10116183;28;20131;-61
2023/01/14 16:27:23;;;;;;;50.22;40.70;;;;;;;;;;10122713;28;20131;-60
2023/01/14 16:32:17;;;;;;;50.55;42.15;;;;;;;;;;10117826;28;20489;-60
2023/01/14 16:37:11;;;;;;;48.00;38.58;;;;;;;;;;10113658;28;20114;-60
2023/01/14 16:42:05;;;;;;;50.42;37.13;;;;;;;;;;10092478;28;20426;-60
2023/01/14 16:46:59;;;;;;;53.00;40.42;;;;;;;;;;10076843;28;20053;-61
2023/01/14 16:51:52;;;;;;;45.47;36.85;;;;;;;;;;10072779;28;20053;-67
2023/01/14 16:56:45;;;;;;;52.17;42.10;;;;;;;;;;10072768;28;20138;-61
2023/01/14 17:01:38;;;;;;;56.40;39.85;;;;;;;;;;10073367;28;20053;-60
2023/01/14 17:06:33;;;;;;;49.47;37.42;;;;;;;;;;10073695;28;20045;-60
2023/01/14 17:16:39;;;;;;;54.60;43.15;;;;;;;;;;10074771;28;20037;-60
2023/01/14 17:21:32;;;;;;;55.85;43.42;;;;;;;;;;10078117;28;20682;-61
2023/01/14 17:26:26;;;;;;;53.33;42.75;;;;;;;;;;10078280;28;20117;-60
2023/01/14 17:31:22;;;;;;;56.53;44.50;;;;;;;;;;10069600;28;20061;-60
2023/01/14 17:48:15;;;;;;;54.17;42.95;;;;;;;;;;10308705;27;20130;-67
2023/01/14 17:53:09;;;;;;;50.83;42.90;;;;;;;;;;10261141;27;20051;-66
2023/01/14 17:58:03;;;;;;;51.17;41.92;;;;;;;;;;10248582;27;20514;-66
2023/01/14 18:02:57;;;;;;;55.05;46.00;;;;;;;;;;10252168;27;20464;-67
2023/01/14 18:07:51;;;;;;;58.42;46.50;;;;;;;;;;10249403;27;20054;-69
2023/01/14 18:12:44;;;;;;;58.88;46.80;;;;;;;;;;10249624;27;20052;-68
2023/01/14 18:17:38;;;;;;;58.22;49.63;;;;;;;;;;10256571;27;20035;-68
2023/01/14 18:22:31;;;;;;;53.30;44.95;;;;;;;;;;10260848;27;20059;-66
2023/01/14 18:27:26;;;;;;;77.10;56.38;;;;;;;;;;10269586;27;20062;-66
2023/01/14 18:32:19;;;;;;;70.45;55.80;;;;;;;;;;10254421;27;20055;-66
2023/01/14 18:37:13;;;;;;;64.85;49.40;;;;;;;;;;10243987;27;20058;-66
2023/01/14 18:42:08;;;;;;;65.05;52.42;;;;;;;;;;10262389;27;20043;-66
2023/01/14 18:47:07;;;;;;;69.47;51.90;;;;;;;;;;10261488;27;20047;-66
2023/01/14 18:52:00;;;;;;;;;;;;;;;;;;10256104;27;20047;-66
2023/01/14 18:56:54;;;;;;;76.00;55.17;;;;;;;;;;10235196;27;19973;-66
2023/01/14 19:01:48;;;;;;;59.65;48.45;;;;;;;;;;10243290;27;20055;-67
2023/01/14 19:06:42;;;;;;;64.70;50.97;;;;;;;;;;10225746;28;20155;-66
2023/01/14 19:16:48;;;;;;;61.30;51.65;;;;;;;;;;10226745;27;20592;-66
2023/01/14 19:21:41;;;;;;;65.75;53.70;;;;;;;;;;10226185;27;20047;-67
2023/01/14 19:26:35;;;;;;;74.38;57.47;;;;;;;;;;10226549;28;20052;-68
2023/01/14 19:31:29;;;;;;;69.55;53.03;;;;;;;;;;10232828;27;20056;-67
2023/01/14 19:36:24;;;;;;;68.28;53.72;;;;;;;;;;10222964;27;20105;-67
2023/01/14 19:41:18;;;;;;;63.50;53.35;;;;;;;;;;10225860;27;20447;-67
2023/01/14 19:46:13;;;;;;;69.50;54.75;;;;;;;;;;10227534;27;20060;-66
2023/01/14 19:51:08;;;;;;;67.47;54.05;;;;;;;;;;10222535;27;20130;-68
2023/01/14 19:56:02;;;;;;;70.00;57.83;;;;;;;;;;10218826;27;20074;-68
2023/01/14 20:01:12;;;;;;;92.07;69.38;;;;;;;;;;10221329;27;20083;-68
2023/01/14 20:06:07;;;;;;;84.57;69.72;;;;;;;;;;10218432;27;20124;-72
2023/01/14 20:11:11;;;;;;;78.35;62.97;;;;;;;;;;10216930;27;20075;-72
2023/01/14 20:16:10;;;;;;;85.32;68.10;;;;;;;;;;10228038;27;20051;-72
2023/01/14 20:21:24;;;;;;;91.82;69.65;;;;;;;;;;10227296;27;20058;-72
2023/01/14 20:26:23;;;;;;;82.03;64.32;;;;;;;;;;10204857;27;20047;-72
2023/01/14 20:31:21;;;;;;;100.88;63.53;;;;;;;;;;10231266;27;20048;-71
2023/01/14 20:36:16;;;;;;;74.05;61.58;;;;;;;;;;10206274;27;20055;-74
2023/01/14 20:41:11;;;;;;;77.38;59.58;;;;;;;;;;10232798;27;20055;-72
2023/01/14 20:46:21;;;;;;;74.88;59.60;;;;;;;;;;10234818;27;20076;-74
2023/01/14 20:51:16;;;;;;;74.03;58.10;;;;;;;;;;10221979;27;20058;-74
2023/01/14 20:56:12;;;;;;;69.13;56.35;;;;;;;;;;10222688;27;20446;-72
2023/01/14 21:01:19;;;;;;;68.13;55.35;;;;;;;;;;10227485;27;20054;-73
2023/01/14 21:06:16;;;;;;;70.43;51.15;;;;;;;;;;10220583;27;20052;-71
2023/01/14 21:11:18;;;;;;;70.00;58.72;;;;;;;;;;10224736;27;20071;-72
2023/01/14 21:26:41;;;;;;;77.35;59.85;;;;;;;;;;10222079;28;20042;-69
2023/01/14 21:31:34;;;;;;;66.50;54.50;;;;;;;;;;10220814;27;20063;-71
2023/01/14 21:36:27;;;;;;;79.18;61.63;;;;;;;;;;10224890;28;20066;-73
2023/01/14 21:46:36;;;;;;;68.25;57.65;;;;;;;;;;10228501;28;20142;-74
2023/01/14 21:51:29;;;;;;;74.05;57.15;;;;;;;;;;10228500;28;20043;-73
2023/01/14 21:56:23;;;;;;;70.32;57.75;;;;;;;;;;10224830;28;20134;-73
2023/01/14 22:01:17;;;;;;;72.90;57.85;;;;;;;;;;10231290;28;20043;-73
2023/01/14 22:06:12;;;;;;;77.28;59.30;;;;;;;;;;10224466;28;20050;-71
2023/01/14 22:11:11;;;;;;;71.03;58.15;;;;;;;;;;10216251;28;20124;-77
2023/01/14 22:16:06;;;;;;;75.70;58.05;;;;;;;;;;10226335;28;20051;-73
2023/01/14 22:21:00;;;;;;;76.18;61.55;;;;;;;;;;10218026;27;20546;-77
2023/01/14 22:25:56;;;;;;;70.78;58.28;;;;;;;;;;10215862;27;20082;-76
2023/01/14 22:30:50;;;;;;;70.93;56.50;;;;;;;;;;10226116;27;20126;-75
2023/01/14 22:35:43;;;;;;;71.90;61.20;;;;;;;;;;10202426;27;20092;-75
2023/01/14 22:40:38;;;;;;;72.65;59.65;;;;;;;;;;10211328;27;20048;-75
2023/01/14 22:45:32;;;;;;;72.53;56.97;;;;;;;;;;10200873;27;20318;-76
2023/01/14 22:50:27;;;;;;;74.75;54.47;;;;;;;;;;10176593;28;20134;-76
2023/01/14 22:55:20;;;;;;;67.90;52.53;;;;;;;;;;10171234;28;20460;-74
2023/01/14 23:00:17;;;;;;;65.53;53.17;;;;;;;;;;10175897;28;20080;-75
2023/01/14 23:05:11;;;;;;;63.53;51.45;;;;;;;;;;10174950;28;20051;-76
2023/01/14 23:10:06;;;;;;;61.67;49.00;;;;;;;;;;10171074;28;20053;-79
2023/01/14 23:15:00;;;;;;;71.07;55.05;;;;;;;;;;10177021;28;20037;-81
2023/01/14 23:25:25;;;;;;;64.07;50.28;;;;;;;;;;10178360;28;20048;-81
2023/01/14 23:30:19;;;;;;;66.38;50.67;;;;;;;;;;10173325;28;20044;-80
2023/01/14 23:35:13;;;;;;;59.33;49.63;;;;;;;;;;10169612;28;20047;-80
2023/01/14 23:40:08;;;;;;;67.28;52.85;;;;;;;;;;10168833;28;20052;-80
2023/01/14 23:45:02;;;;;;;66.70;50.50;;;;;;;;;;10165821;28;20510;-80
2023/01/14 23:49:56;;;;;;;61.47;48.08;;;;;;;;;;10210904;27;20044;-80
2023/01/14 23:54:49;;;;;;;58.30;50.28;;;;;;;;;;10212262;27;20056;-80
2023/01/14 23:59:43;;;;;;;66.18;53.63;;;;;;;;;;10217435;27;20039;-80
